createdAt,value
2022-11-12T00:00:04.603Z,23.88
2022-11-12T00:02:51.395Z,27.83
2022-11-12T00:05:38.293Z,20.52
2022-11-12T00:08:26.156Z,16.48
2022-11-12T00:11:12.892Z,15.48
2022-11-12T00:13:59.757Z,14.65
2022-11-12T00:16:46.227Z,13.45
2022-11-12T00:19:33.211Z,13.48
2022-11-12T00:22:21.061Z,13.50
2022-11-12T00:25:08.844Z,12.95
2022-11-12T00:28:00.887Z,14.48
2022-11-12T00:30:47.736Z,13.35
2022-11-12T00:33:34.152Z,14.13
2022-11-12T00:36:20.738Z,13.35
2022-11-12T00:39:08.395Z,15.00
2022-11-12T00:41:55.705Z,15.18
2022-11-12T00:44:42.101Z,14.32
2022-11-12T00:47:28.783Z,15.77
2022-11-12T00:50:16.393Z,13.00
2022-11-12T00:53:03.609Z,13.88
2022-11-12T00:55:50.044Z,12.90
2022-11-12T00:58:37.052Z,15.15
2022-11-12T01:01:23.409Z,15.43
2022-11-12T01:04:10.666Z,23.10
2022-11-12T01:06:57.500Z,18.08
2022-11-12T01:09:43.940Z,28.23
2022-11-12T01:12:32.266Z,28.25
2022-11-12T01:15:19.343Z,28.92
2022-11-12T01:18:06.470Z,28.90
2022-11-12T01:20:52.933Z,29.88
2022-11-12T01:23:43.416Z,26.15
2022-11-12T01:26:29.829Z,26.65
2022-11-12T01:29:17.095Z,27.20
2022-11-12T01:32:04.119Z,22.67
2022-11-12T01:34:51.839Z,25.33
2022-11-12T01:37:38.996Z,25.63
2022-11-12T01:40:26.009Z,30.10
2022-11-12T01:43:13.845Z,27.45
2022-11-12T01:46:05.275Z,18.30
2022-11-12T01:49:04.740Z,16.40
2022-11-12T01:51:56.687Z,20.45
2022-11-12T01:54:49.773Z,17.52
2022-11-12T01:58:12.965Z,20.98
2022-11-12T02:01:01.507Z,22.08
2022-11-12T02:03:48.637Z,21.27
2022-11-12T02:06:37.216Z,16.27
2022-11-12T02:09:24.581Z,14.40
2022-11-12T02:12:31.364Z,14.43
2022-11-12T02:15:40.803Z,12.45
2022-11-12T02:18:28.620Z,15.50
2022-11-12T02:21:20.757Z,14.52
2022-11-12T02:24:27.762Z,15.57
2022-11-12T02:27:14.344Z,12.05
2022-11-12T02:30:00.941Z,13.90
2022-11-12T02:32:48.241Z,12.30
2022-11-12T02:35:35.562Z,13.38
2022-11-12T02:38:22.007Z,14.02
2022-11-12T02:41:08.761Z,13.60
2022-11-12T02:43:56.247Z,13.52
2022-11-12T02:46:43.299Z,14.60
2022-11-12T02:49:30.705Z,12.98
2022-11-12T02:52:17.534Z,14.52
2022-11-12T02:55:05.501Z,15.50
2022-11-12T02:57:52.187Z,15.65
2022-11-12T03:00:39.230Z,15.23
2022-11-12T03:03:26.568Z,16.95
2022-11-12T03:06:13.585Z,16.98
2022-11-12T03:09:00.159Z,16.42
2022-11-12T03:11:47.496Z,15.43
2022-11-12T03:14:35.116Z,14.00
2022-11-12T03:17:21.536Z,15.38
2022-11-12T03:20:08.748Z,12.23
2022-11-12T03:23:04.775Z,12.15
2022-11-12T03:25:51.266Z,10.82
2022-11-12T03:28:38.020Z,11.55
2022-11-12T03:31:24.503Z,10.85
2022-11-12T03:34:11.987Z,10.13
2022-11-12T03:36:59.149Z,10.40
2022-11-12T03:39:45.698Z,10.68
2022-11-12T03:42:32.755Z,11.10
2022-11-12T03:45:22.204Z,11.30
2022-11-12T03:48:09.296Z,11.27
2022-11-12T03:51:00.039Z,10.13
2022-11-12T03:53:47.325Z,9.95
2022-11-12T03:56:34.727Z,9.25
2022-11-12T03:59:21.356Z,9.02
2022-11-12T04:02:08.336Z,9.20
2022-11-12T04:05:14.159Z,10.15
2022-11-12T04:08:22.078Z,9.48
2022-11-12T04:11:14.786Z,9.35
2022-11-12T04:14:01.525Z,9.57
2022-11-12T04:17:06.598Z,8.30
2022-11-12T04:20:12.212Z,8.07
2022-11-12T04:22:58.915Z,8.65
2022-11-12T04:26:04.532Z,8.52
2022-11-12T04:32:21.869Z,8.63
2022-11-12T04:35:10.104Z,8.80
2022-11-12T04:37:56.894Z,9.00
2022-11-12T04:41:06.990Z,9.02
2022-11-12T04:44:12.133Z,7.78
2022-11-12T04:47:00.219Z,7.38
2022-11-12T04:49:46.734Z,8.05
2022-11-12T04:52:33.230Z,7.82
2022-11-12T04:55:19.608Z,9.25
2022-11-12T04:58:06.177Z,7.13
2022-11-12T05:00:52.716Z,8.90
2022-11-12T05:03:39.195Z,9.50
2022-11-12T05:06:44.073Z,8.15
2022-11-12T05:09:31.029Z,8.85
2022-11-12T05:12:17.482Z,9.40
2022-11-12T05:15:05.078Z,9.77
2022-11-12T05:17:52.312Z,9.02
2022-11-12T05:20:38.991Z,9.15
2022-11-12T05:23:25.717Z,9.43
2022-11-12T05:26:12.631Z,8.60
2022-11-12T05:28:59.135Z,9.23
2022-11-12T05:31:46.553Z,9.35
2022-11-12T05:34:33.382Z,8.32
2022-11-12T05:37:19.776Z,9.18
2022-11-12T05:40:06.980Z,9.57
2022-11-12T05:42:53.525Z,9.80
2022-11-12T05:45:43.490Z,10.25
2022-11-12T05:48:30.383Z,10.25
2022-11-12T05:51:16.978Z,11.20
2022-11-12T05:54:04.103Z,10.80
2022-11-12T05:56:52.955Z,11.02
2022-11-12T05:59:39.750Z,12.40
2022-11-12T06:02:26.313Z,11.50
2022-11-12T06:05:13.187Z,12.00
2022-11-12T06:08:00.350Z,11.75
2022-11-12T06:10:54.700Z,12.27
2022-11-12T06:13:41.221Z,17.15
2022-11-12T06:16:28.341Z,17.00
2022-11-12T06:19:14.729Z,12.82
2022-11-12T06:22:01.304Z,9.30
2022-11-12T06:24:47.974Z,20.50
2022-11-12T06:27:34.520Z,9.65
2022-11-12T06:30:25.531Z,8.88
2022-11-12T06:33:12.248Z,9.32
2022-11-12T06:36:03.233Z,10.25
2022-11-12T06:38:50.134Z,9.18
2022-11-12T06:41:36.660Z,7.68
2022-11-12T06:44:23.619Z,8.68
2022-11-12T06:47:13.217Z,8.63
2022-11-12T06:49:59.810Z,7.85
2022-11-12T06:52:46.491Z,11.52
2022-11-12T06:55:33.831Z,8.73
2022-11-12T06:58:20.295Z,9.80
2022-11-12T07:01:18.430Z,9.40
2022-11-12T07:04:05.466Z,9.18
2022-11-12T07:06:52.499Z,8.05
2022-11-12T07:09:38.856Z,7.55
2022-11-12T07:12:25.848Z,6.97
2022-11-12T07:15:12.329Z,7.28
2022-11-12T07:17:59.300Z,6.68
2022-11-12T07:20:45.859Z,10.60
2022-11-12T07:23:34.058Z,18.92
2022-11-12T07:26:23.152Z,11.25
2022-11-12T07:29:10.251Z,10.75
2022-11-12T07:31:57.169Z,11.23
2022-11-12T07:34:43.785Z,11.80
2022-11-12T07:37:31.422Z,8.55
2022-11-12T07:40:17.743Z,7.63
2022-11-12T07:43:04.227Z,6.68
2022-11-12T07:45:50.847Z,7.50
2022-11-12T07:48:37.931Z,8.35
2022-11-12T07:51:27.136Z,7.63
2022-11-12T07:54:14.096Z,8.45
2022-11-12T07:57:00.789Z,8.40
2022-11-12T07:59:47.974Z,7.45
2022-11-12T08:02:34.189Z,10.07
2022-11-12T08:05:21.602Z,18.63
2022-11-12T08:08:08.774Z,13.80
2022-11-12T08:10:59.424Z,13.00
2022-11-12T08:13:46.129Z,13.60
2022-11-12T08:16:33.065Z,14.93
2022-11-12T08:19:19.399Z,14.93
2022-11-12T08:22:06.359Z,15.13
2022-11-12T08:24:53.107Z,17.00
2022-11-12T08:27:40.087Z,16.42
2022-11-12T08:30:27.982Z,17.27
2022-11-12T08:33:14.626Z,16.75
2022-11-12T08:36:09.681Z,15.63
2022-11-12T08:39:46.642Z,13.18
2022-11-12T08:42:33.204Z,13.43
2022-11-12T08:45:19.947Z,8.50
2022-11-12T08:48:09.900Z,11.05
2022-11-12T08:50:57.028Z,11.77
2022-11-12T08:53:44.716Z,7.97
2022-11-12T08:56:34.140Z,9.70
2022-11-12T08:59:20.749Z,10.77
2022-11-12T09:02:15.199Z,9.88
2022-11-12T09:05:01.743Z,12.13
2022-11-12T09:07:50.335Z,17.08
2022-11-12T09:10:38.347Z,15.23
2022-11-12T09:13:25.779Z,14.13
2022-11-12T09:16:37.139Z,16.75
2022-11-12T09:19:23.752Z,18.48
2022-11-12T09:22:35.149Z,19.27
2022-11-12T09:25:22.231Z,22.77
2022-11-12T09:28:13.997Z,25.60
2022-11-12T09:31:00.547Z,25.23
2022-11-12T09:33:47.155Z,25.42
2022-11-12T09:37:48.341Z,26.33
2022-11-12T09:41:00.210Z,23.02
2022-11-12T09:43:53.611Z,24.60
2022-11-12T09:47:26.755Z,29.65
2022-11-12T09:50:31.179Z,29.45
2022-11-12T09:53:24.174Z,28.70
2022-11-12T09:56:13.690Z,26.65
2022-11-12T09:59:00.675Z,31.20
2022-11-12T10:01:56.973Z,31.25
2022-11-12T10:05:18.137Z,30.33
2022-11-12T10:08:19.427Z,32.60
2022-11-12T10:11:53.458Z,36.42
2022-11-12T10:14:45.678Z,27.17
2022-11-12T10:17:45.812Z,22.95
2022-11-12T10:20:38.841Z,25.33
2022-11-12T10:23:29.979Z,24.13
2022-11-12T10:26:18.915Z,25.75
2022-11-12T10:29:11.977Z,25.92
2022-11-12T10:32:02.746Z,25.58
2022-11-12T10:34:49.549Z,23.20
2022-11-12T10:37:55.213Z,27.05
2022-11-12T10:40:42.700Z,27.70
2022-11-12T10:43:30.173Z,28.05
2022-11-12T10:46:22.608Z,27.00
2022-11-12T10:49:14.916Z,28.52
2022-11-12T10:52:01.774Z,28.90
2022-11-12T10:54:53.924Z,27.77
2022-11-12T10:57:42.358Z,32.53
2022-11-12T11:00:29.693Z,32.25
2022-11-12T11:03:22.256Z,30.17
2022-11-12T11:06:14.613Z,31.30
2022-11-12T11:09:13.550Z,31.75
2022-11-12T11:12:00.997Z,32.50
2022-11-12T11:14:47.286Z,31.90
2022-11-12T11:17:34.973Z,35.53
2022-11-12T11:20:48.284Z,35.95
2022-11-12T11:23:50.364Z,34.00
2022-11-12T11:26:50.132Z,33.33
2022-11-12T11:30:14.963Z,30.73
2022-11-12T11:33:26.189Z,29.00
2022-11-12T11:36:12.519Z,28.10
2022-11-12T11:39:20.750Z,27.00
2022-11-12T11:42:36.364Z,27.17
2022-11-12T11:45:41.203Z,28.23
2022-11-12T11:48:54.153Z,26.95
2022-11-12T11:51:58.001Z,29.73
2022-11-12T11:54:58.778Z,28.63
2022-11-12T11:58:04.943Z,26.10
2022-11-12T12:01:14.623Z,34.35
2022-11-12T12:04:22.343Z,31.92
2022-11-12T12:07:32.207Z,33.20
2022-11-12T12:11:07.047Z,31.85
2022-11-12T12:14:16.973Z,28.83
2022-11-12T12:17:34.802Z,35.42
2022-11-12T12:20:25.544Z,34.38
2022-11-12T12:23:21.501Z,36.80
2022-11-12T12:26:22.900Z,35.53
2022-11-12T12:29:34.502Z,34.20
2022-11-12T12:32:33.541Z,43.35
2022-11-12T12:35:33.156Z,40.20
2022-11-12T12:38:32.737Z,46.28
2022-11-12T12:41:28.026Z,35.45
2022-11-12T12:44:15.845Z,36.50
2022-11-12T12:47:03.141Z,38.40
2022-11-12T12:49:50.902Z,38.08
2022-11-12T12:53:22.183Z,39.13
2022-11-12T12:56:14.683Z,39.03
2022-11-12T12:59:04.643Z,38.47
2022-11-12T13:02:02.496Z,42.95
2022-11-12T13:04:57.985Z,39.15
2022-11-12T13:07:49.046Z,38.65
2022-11-12T13:10:41.546Z,37.90
2022-11-12T13:13:32.585Z,38.50
2022-11-12T13:16:49.832Z,45.70
2022-11-12T13:19:43.910Z,35.70
2022-11-12T13:22:48.875Z,36.05
2022-11-12T13:28:22.377Z,32.33
2022-11-12T13:31:27.390Z,36.85
2022-11-12T13:34:18.888Z,49.58
2022-11-12T13:37:07.076Z,48.05
2022-11-12T13:39:53.966Z,52.42
2022-11-12T13:42:50.225Z,44.35
2022-11-12T13:46:18.646Z,42.60
2022-11-12T13:49:12.116Z,55.88
2022-11-12T13:52:00.851Z,66.15
2022-11-12T13:54:47.407Z,67.68
2022-11-12T13:57:34.525Z,59.83
2022-11-12T14:00:26.887Z,56.40
2022-11-12T14:03:19.348Z,51.83
2022-11-12T14:06:16.177Z,51.17
2022-11-12T14:09:12.104Z,46.92
2022-11-12T14:12:23.302Z,47.50
2022-11-12T14:15:19.603Z,47.00
2022-11-12T14:18:35.378Z,48.22
2022-11-12T14:21:22.760Z,43.45
2022-11-12T14:24:13.637Z,43.35
2022-11-12T14:27:00.313Z,69.35
2022-11-12T14:29:48.599Z,38.72
2022-11-12T14:32:39.490Z,32.67
2022-11-12T14:35:30.283Z,34.78
2022-11-12T14:38:31.995Z,42.00
2022-11-12T14:41:35.797Z,41.35
2022-11-12T14:44:33.827Z,37.92
2022-11-12T14:47:21.659Z,34.17
2022-11-12T14:50:22.092Z,26.85
2022-11-12T14:53:14.819Z,23.77
2022-11-12T14:56:04.793Z,31.00
2022-11-12T14:58:54.038Z,33.53
2022-11-12T15:02:26.640Z,26.77
2022-11-12T15:04:55.008Z,26.83
2022-11-12T15:07:56.127Z,31.83
2022-11-12T15:10:44.849Z,30.23
2022-11-12T15:13:39.797Z,37.83
2022-11-12T15:16:36.868Z,32.00
2022-11-12T15:19:26.062Z,43.72
2022-11-12T15:22:21.860Z,45.28
2022-11-12T15:25:24.283Z,41.25
2022-11-12T15:28:24.889Z,43.97
2022-11-12T15:31:22.963Z,39.30
2022-11-12T15:34:42.229Z,46.30
2022-11-12T15:37:42.635Z,42.58
2022-11-12T15:40:30.692Z,44.28
2022-11-12T15:43:23.860Z,46.50
2022-11-12T15:46:17.532Z,43.83
2022-11-12T15:49:13.189Z,47.67
2022-11-12T15:51:59.785Z,61.53
2022-11-12T15:54:47.254Z,53.97
2022-11-12T15:57:41.682Z,45.35
2022-11-12T16:03:22.747Z,42.65
2022-11-12T16:06:12.236Z,45.47
2022-11-12T16:08:58.903Z,44.42
2022-11-12T16:11:47.099Z,49.08
2022-11-12T16:14:33.953Z,44.80
2022-11-12T16:17:21.173Z,39.97
2022-11-12T16:20:21.437Z,40.92
2022-11-12T16:23:08.625Z,40.20
2022-11-12T16:25:56.231Z,36.25
2022-11-12T16:28:43.940Z,57.75
2022-11-12T16:31:31.107Z,56.60
2022-11-12T16:34:18.380Z,57.00
2022-11-12T16:37:05.413Z,50.67
2022-11-12T16:39:52.404Z,53.92
2022-11-12T16:42:45.562Z,58.60
2022-11-12T16:45:35.272Z,69.22
2022-11-12T16:48:23.394Z,68.90
2022-11-12T16:51:18.206Z,71.30
2022-11-12T16:54:05.461Z,62.45
2022-11-12T16:56:52.603Z,63.38
2022-11-12T16:59:59.796Z,73.93
2022-11-12T17:02:52.062Z,63.65
2022-11-12T17:05:39.964Z,48.85
2022-11-12T17:08:33.753Z,32.83
2022-11-12T17:11:20.663Z,43.90
2022-11-12T17:14:08.040Z,41.25
2022-11-12T17:16:55.341Z,48.25
2022-11-12T17:19:42.179Z,41.95
2022-11-12T17:22:28.505Z,37.47
2022-11-12T17:25:15.435Z,41.70
2022-11-12T17:28:02.238Z,34.80
2022-11-12T17:30:49.674Z,43.13
2022-11-12T17:33:51.921Z,33.55
2022-11-12T17:36:43.384Z,35.75
2022-11-12T17:39:31.176Z,31.10
2022-11-12T17:42:19.529Z,32.22
2022-11-12T17:45:07.307Z,35.97
2022-11-12T17:47:53.890Z,34.10
2022-11-12T17:50:41.014Z,37.20
2022-11-12T17:53:29.026Z,33.28
2022-11-12T17:56:19.091Z,39.50
2022-11-12T17:59:06.033Z,39.30
2022-11-12T18:01:52.830Z,40.63
2022-11-12T18:04:40.178Z,39.45
2022-11-12T18:07:26.770Z,34.63
2022-11-12T18:10:19.232Z,36.00
2022-11-12T18:13:07.029Z,36.90
2022-11-12T18:15:54.173Z,33.63
2022-11-12T18:18:40.853Z,29.55
2022-11-12T18:21:28.177Z,29.27
2022-11-12T18:24:17.021Z,39.03
2022-11-12T18:27:04.683Z,43.20
2022-11-12T18:29:51.828Z,41.05
2022-11-12T18:32:39.485Z,42.72
2022-11-12T18:35:29.777Z,42.05
2022-11-12T18:38:16.436Z,38.85
2022-11-12T18:41:09.047Z,35.58
2022-11-12T18:43:56.973Z,35.47
2022-11-12T18:46:43.752Z,27.30
2022-11-12T18:49:30.990Z,26.65
2022-11-12T18:52:17.787Z,27.63
2022-11-12T18:55:04.905Z,25.58
2022-11-12T18:57:51.952Z,27.80
2022-11-12T19:00:38.678Z,29.70
2022-11-12T19:03:25.543Z,33.45
2022-11-12T19:06:13.970Z,31.42
2022-11-12T19:09:01.683Z,29.33
2022-11-12T19:11:49.004Z,29.27
2022-11-12T19:14:36.294Z,27.90
2022-11-12T19:17:28.225Z,30.92
2022-11-12T19:23:03.751Z,31.48
2022-11-12T19:25:50.489Z,28.50
2022-11-12T19:28:37.626Z,32.65
2022-11-12T19:31:26.255Z,39.03
2022-11-12T19:34:13.508Z,34.22
2022-11-12T19:40:08.143Z,40.00
2022-11-12T19:42:55.372Z,37.65
2022-11-12T19:45:42.504Z,35.78
2022-11-12T19:48:31.232Z,35.20
2022-11-12T19:51:17.957Z,34.65
2022-11-12T19:54:05.250Z,39.75
2022-11-12T19:56:52.046Z,37.80
2022-11-12T19:59:40.282Z,47.17
2022-11-12T20:02:27.025Z,45.53
2022-11-12T20:05:14.436Z,42.97
2022-11-12T20:08:01.972Z,41.67
2022-11-12T20:10:49.116Z,39.70
2022-11-12T20:13:35.887Z,48.55
2022-11-12T20:16:25.424Z,58.92
2022-11-12T20:19:13.340Z,44.38
2022-11-12T20:22:01.055Z,42.15
2022-11-12T20:24:48.021Z,36.88
2022-11-12T20:27:34.540Z,38.45
2022-11-12T20:30:21.755Z,37.55
2022-11-12T20:33:08.891Z,37.53
2022-11-12T20:36:03.081Z,37.53
2022-11-12T20:38:50.798Z,48.42
2022-11-12T20:41:37.685Z,36.22
2022-11-12T20:44:25.474Z,40.75
2022-11-12T20:47:13.099Z,43.13
2022-11-12T20:50:00.201Z,39.65
2022-11-12T20:52:46.464Z,41.35
2022-11-12T20:55:33.471Z,40.83
2022-11-12T20:58:20.254Z,39.90
2022-11-12T21:01:10.234Z,40.63
2022-11-12T21:03:58.351Z,42.05
2022-11-12T21:06:45.005Z,43.00
2022-11-12T21:09:32.084Z,46.92
2022-11-12T21:12:19.125Z,57.85
2022-11-12T21:15:06.116Z,51.45
2022-11-12T21:17:52.887Z,43.80
2022-11-12T21:20:40.063Z,47.78
2022-11-12T21:23:32.757Z,55.53
2022-11-12T21:26:22.047Z,60.17
2022-11-12T21:29:09.234Z,40.58
2022-11-12T21:31:56.112Z,27.35
2022-11-12T21:34:43.372Z,36.15
2022-11-12T21:37:31.384Z,40.13
2022-11-12T21:40:18.984Z,42.08
2022-11-12T21:43:07.211Z,38.30
2022-11-12T21:45:53.627Z,35.72
2022-11-12T21:48:40.428Z,25.08
2022-11-12T21:51:29.799Z,20.05
2022-11-12T21:54:16.731Z,20.80
2022-11-12T21:57:03.949Z,21.88
2022-11-12T21:59:50.960Z,17.17
2022-11-12T22:02:37.746Z,20.85
2022-11-12T22:05:24.869Z,20.20
2022-11-12T22:08:11.797Z,17.60
2022-11-12T22:11:20.622Z,17.15
2022-11-12T22:14:07.140Z,14.55
2022-11-12T22:16:53.855Z,16.25
2022-11-12T22:19:40.625Z,17.17
2022-11-12T22:22:28.244Z,18.55
2022-11-12T22:25:14.806Z,37.05
2022-11-12T22:28:01.686Z,36.15
2022-11-12T22:30:48.082Z,33.08
2022-11-12T22:33:35.596Z,35.15
2022-11-12T22:36:24.285Z,36.72
2022-11-12T22:39:11.483Z,34.42
2022-11-12T22:41:58.289Z,31.60
2022-11-12T22:44:45.563Z,33.40
2022-11-12T22:47:33.951Z,36.17
2022-11-12T22:50:21.781Z,35.90
2022-11-12T22:53:08.788Z,26.55
2022-11-12T22:55:56.015Z,20.70
2022-11-12T22:58:45.473Z,25.17
2022-11-12T23:01:34.997Z,27.23
2022-11-12T23:04:21.728Z,27.20
2022-11-12T23:07:08.445Z,24.65
2022-11-12T23:09:55.652Z,22.90
2022-11-12T23:12:42.077Z,34.72
2022-11-12T23:15:32.340Z,33.22
2022-11-12T23:18:18.666Z,41.63
2022-11-12T23:21:08.115Z,39.65
2022-11-12T23:23:58.048Z,39.35
2022-11-12T23:26:45.384Z,38.92
2022-11-12T23:29:31.654Z,41.20
2022-11-12T23:32:18.386Z,44.28
2022-11-12T23:35:05.264Z,41.35
2022-11-12T23:37:53.140Z,42.40
2022-11-12T23:40:39.779Z,45.97
2022-11-12T23:43:26.816Z,43.47
2022-11-12T23:46:13.507Z,42.40
2022-11-12T23:49:01.079Z,44.33
2022-11-12T23:51:47.495Z,34.53
2022-11-12T23:54:34.437Z,33.63
2022-11-12T23:57:21.845Z,25.33
